Fence, Wisconsin
Current Conditions -  °F | °C
As of 11:54 AM on Friday 19 Dec 2014 (Local Time) from KIMT Reporting Station
Overcast Overcast  
Wind Chill: 24°   Ceiling: 2000
Heat Index: 24°   Visibility: 10mi
Dew Point: 20°   Wind: 3mph
Humidity: 84%   Direction: 360°N
Pressure: 30.24"   Gusts: NA
Location:  45.74°N, 88.42°W
Report Text: KIMT 191754Z AUTO 36003KT 10SM OVC020 M04/M07 A3024 RMK AO2 SLP265 I6000 T10441067 11044 21156 57014
Loading
Personal Weather Stations






























Interactive Weather Map New forecast layout! Learn more

10-Day Weather Forecast

Advertisements
Track Severe Weather on mobile